Airfield :







YOU CAN JOIN US ON...

 
LOGIN :

Register | Disclaimer

   EN    FR    IT 

 









Legend :    VFR   Marginal VFR   IFR   Intensive IFR   Very Intensive IFR
Visi :
Ceiling :
>= 8 km
>= 3000ft
5 to 8 km
1000 to 3000 ft
1500m to 5 km
500 to 1000 ft
800 to 1500m
200 to 500 ft
< 800m
< 200 ft
Symbols :   Thunderstorms  Fog  Heavy snow  Heavy precipitations  Wind > 20 kt






- Airport Elevation : 377 ft
- IATA code : YPS


CYPD - Port Hawkesbury

CURRENT METAR :
  • 140047Z AUTO 27019G27KT 9SM FEW021 BKN037 OVC044 M03/M08 A2994 RMK SLP145

EXPIRED METARs :
  • 140027Z AUTO 26013G22KT 7SM -SN SCT009 BKN017 BKN024 OVC033 M04/M06 A2992 RMK SLP141
  • 140013Z AUTO 26014G20KT 5SM -SN BKN009 BKN015 BKN021 OVC048 M05/M06 A2991 RMK SLP137
  • 140000Z AUTO 26014G23KT 8SM -SN SCT009 BKN016 BKN026 OVC037 M05/M06 A2991 RMK PRESRR SLP135
  • 132353Z AUTO 25011G20KT 6SM -SN FEW010 BKN018 BKN025 OVC037 M05/M06 A2989 RMK SLP131
  • 132344Z AUTO 25015G24KT 2 1/4SM -SN FEW010 BKN020 BKN030 OVC037 M05/M06 A2989 RMK SLP130
  • 132338Z AUTO 25017G23KT 4SM -SN FEW012 BKN020 BKN029 OVC037 M05/M06 A2989 RMK SLP128
  • 132315Z AUTO 26016G24KT 8SM -SN SCT010 BKN029 BKN034 M05/M06 A2988 RMK SLP124
  • 132306Z AUTO 25016G29KT 4SM -SN SCT008 BKN015 BKN026 OVC034 M05/M06 A2987 RMK SLP123
  • 132200Z AUTO 26014G23KT 1 1/4SM -SN OVC014 M05/M07 A2983 RMK SLP110

TAF N/A



MET'MAP, your aeronautical weather chart ! - Copyright ORBIFLY December 2007 - Disclaimer

ORBIFLY MET'MAP TEAM :

Programming & Development : Alexandra Zaïnal
Concept & Development : Baudouin d'Aumeries
Co-Development & Prog : Marc-Olivier Méhu
Technical & hardware support : Manuel Goepfert

Contact : metmap@orbifly.com




SOURCES & CREDITS :

   NOAA